createdAt,value
2023-07-04T00:01:26.586Z,43.92
2023-07-04T00:03:58.312Z,43.86
2023-07-04T00:06:30.433Z,44.13
2023-07-04T00:08:58.676Z,43.99
2023-07-04T00:11:26.770Z,43.90
2023-07-04T00:13:55.066Z,43.68
2023-07-04T00:18:51.766Z,44.22
2023-07-04T00:21:21.680Z,43.74
2023-07-04T00:23:54.800Z,44.45
2023-07-04T00:26:24.967Z,44.26
2023-07-04T00:28:53.519Z,44.11
2023-07-04T00:31:25.012Z,44.18
2023-07-04T00:33:54.373Z,44.73
2023-07-04T00:36:24.381Z,44.74
2023-07-04T00:38:58.083Z,44.72
2023-07-04T00:41:30.083Z,44.94
2023-07-04T00:44:08.951Z,44.40
2023-07-04T00:46:40.691Z,44.79
2023-07-04T00:49:24.013Z,44.36
2023-07-04T00:52:02.101Z,44.83
2023-07-04T00:54:34.145Z,44.24
2023-07-04T00:57:04.207Z,44.53
2023-07-04T00:59:34.753Z,44.60
2023-07-04T01:02:03.163Z,44.41
2023-07-04T01:04:34.418Z,44.72
2023-07-04T01:07:16.889Z,44.76
2023-07-04T01:09:51.005Z,44.12
2023-07-04T01:12:19.818Z,43.91
2023-07-04T01:14:49.378Z,44.03
2023-07-04T01:17:17.468Z,43.75
2023-07-04T01:19:46.738Z,43.45
2023-07-04T01:22:28.895Z,43.00
2023-07-04T01:25:06.660Z,43.25
2023-07-04T01:27:38.233Z,42.92
2023-07-04T01:30:13.489Z,43.10
2023-07-04T01:32:43.612Z,43.78
2023-07-04T01:35:14.569Z,43.90
2023-07-04T01:37:42.804Z,43.78
2023-07-04T01:40:12.218Z,44.20
2023-07-04T01:42:42.227Z,44.17
2023-07-04T01:45:11.503Z,43.90
2023-07-04T01:47:40.466Z,44.19
2023-07-04T01:50:11.911Z,44.27
2023-07-04T01:52:41.283Z,44.89
2023-07-04T01:55:12.133Z,44.79
2023-07-04T01:57:42.435Z,44.80
2023-07-04T02:00:14.526Z,44.53
2023-07-04T02:02:43.588Z,45.16
2023-07-04T02:05:11.693Z,44.70
2023-07-04T02:07:39.722Z,44.71
2023-07-04T02:10:09.204Z,44.38
2023-07-04T02:12:37.297Z,44.45
2023-07-04T02:15:09.140Z,44.99
2023-07-04T02:17:37.678Z,44.97
2023-07-04T02:20:06.904Z,44.42
2023-07-04T02:22:35.150Z,44.68
2023-07-04T02:25:04.115Z,44.71
2023-07-04T02:27:32.360Z,44.39
2023-07-04T02:30:00.505Z,44.44
2023-07-04T02:32:30.033Z,44.83
2023-07-04T02:34:58.135Z,45.19
2023-07-04T02:37:26.249Z,45.78
2023-07-04T02:39:55.721Z,45.36
2023-07-04T02:42:23.878Z,45.43
2023-07-04T02:44:52.645Z,45.77
2023-07-04T02:47:24.613Z,45.49
2023-07-04T02:49:54.320Z,46.38
2023-07-04T02:52:22.906Z,46.04
2023-07-04T02:54:51.014Z,46.12
2023-07-04T02:57:19.371Z,46.37
2023-07-04T02:59:48.100Z,46.65
2023-07-04T03:02:16.255Z,46.43
2023-07-04T03:04:44.953Z,46.36
2023-07-04T03:07:14.428Z,46.96
2023-07-04T03:09:43.212Z,46.39
2023-07-04T03:12:11.447Z,46.93
2023-07-04T03:14:39.586Z,46.52
2023-07-04T03:17:07.740Z,46.93
2023-07-04T03:19:36.020Z,47.14
2023-07-04T03:22:04.119Z,46.79
2023-07-04T03:24:33.580Z,46.73
2023-07-04T03:27:01.791Z,47.00
2023-07-04T03:29:29.992Z,47.06
2023-07-04T03:31:58.055Z,47.02
2023-07-04T03:34:26.090Z,47.11
2023-07-04T03:36:54.132Z,47.69
2023-07-04T03:39:22.210Z,47.36
2023-07-04T03:41:51.759Z,47.83
2023-07-04T03:44:19.824Z,47.74
2023-07-04T03:46:47.939Z,47.69
2023-07-04T03:49:16.091Z,47.99
2023-07-04T03:51:45.764Z,47.75
2023-07-04T03:54:15.669Z,47.99
2023-07-04T03:56:43.811Z,47.52
2023-07-04T03:59:13.293Z,47.94
2023-07-04T04:01:41.438Z,47.99
2023-07-04T04:04:09.706Z,48.13
2023-07-04T04:06:37.961Z,48.13
2023-07-04T04:09:06.061Z,48.50
2023-07-04T04:11:34.080Z,48.35
2023-07-04T04:14:02.267Z,48.31
2023-07-04T04:16:31.788Z,48.69
2023-07-04T04:19:00.074Z,48.65
2023-07-04T04:21:28.148Z,48.96
2023-07-04T04:23:56.585Z,48.67
2023-07-04T04:26:25.609Z,48.67
2023-07-04T04:28:54.611Z,48.72
2023-07-04T04:31:23.118Z,49.11
2023-07-04T04:33:52.697Z,49.14
2023-07-04T04:36:21.905Z,49.14
2023-07-04T04:38:50.810Z,49.08
2023-07-04T04:41:18.883Z,48.72
2023-07-04T04:43:51.443Z,48.77
2023-07-04T04:46:19.929Z,48.74
2023-07-04T04:48:48.114Z,48.21
2023-07-04T04:51:17.698Z,48.20
2023-07-04T04:53:46.635Z,47.80
2023-07-04T04:56:14.885Z,47.83
2023-07-04T04:58:45.138Z,47.54
2023-07-04T05:01:17.071Z,47.42
2023-07-04T05:03:45.273Z,47.44
2023-07-04T05:06:14.259Z,47.25
2023-07-04T05:08:44.418Z,47.08
2023-07-04T05:11:12.536Z,46.54
2023-07-04T05:13:41.353Z,46.13
2023-07-04T05:16:12.985Z,46.26
2023-07-04T05:18:42.289Z,45.91
2023-07-04T05:21:12.461Z,45.34
2023-07-04T05:23:43.024Z,45.16
2023-07-04T05:26:15.055Z,45.17
2023-07-04T05:28:43.551Z,44.58
2023-07-04T05:31:16.345Z,44.29
2023-07-04T05:33:44.909Z,44.27
2023-07-04T05:36:16.115Z,43.89
2023-07-04T05:38:45.061Z,43.28
2023-07-04T05:41:16.747Z,42.74
2023-07-04T05:43:45.795Z,42.43
2023-07-04T05:46:14.719Z,42.32
2023-07-04T05:48:43.172Z,41.86
2023-07-04T05:51:13.028Z,41.67
2023-07-04T05:53:43.113Z,41.39
2023-07-04T05:56:13.845Z,41.10
2023-07-04T05:58:45.011Z,40.88
2023-07-04T06:01:16.146Z,40.77
2023-07-04T06:03:45.470Z,40.40
2023-07-04T06:06:19.748Z,39.80
2023-07-04T06:08:48.236Z,40.13
2023-07-04T06:11:17.384Z,39.55
2023-07-04T06:13:47.208Z,39.49
2023-07-04T06:16:15.802Z,39.59
2023-07-04T06:18:44.778Z,39.33
2023-07-04T06:21:14.788Z,39.22
2023-07-04T06:23:44.296Z,38.74
2023-07-04T06:26:13.589Z,38.84
2023-07-04T06:28:43.230Z,38.57
2023-07-04T06:31:16.110Z,38.04
2023-07-04T06:33:44.696Z,38.28
2023-07-04T06:36:15.036Z,38.41
2023-07-04T06:38:43.507Z,37.70
2023-07-04T06:41:13.635Z,38.20
2023-07-04T06:43:44.665Z,38.14
2023-07-04T06:46:15.883Z,37.45
2023-07-04T06:48:44.608Z,38.01
2023-07-04T06:51:14.880Z,37.41
2023-07-04T06:53:43.716Z,37.66
2023-07-04T06:56:13.810Z,36.96
2023-07-04T06:58:44.018Z,37.20
2023-07-04T07:01:14.009Z,36.43
2023-07-04T07:03:42.786Z,36.05
2023-07-04T07:06:12.647Z,35.70
2023-07-04T07:08:41.107Z,36.00
2023-07-04T07:11:12.654Z,36.48
2023-07-04T07:13:41.474Z,35.98
2023-07-04T07:16:11.824Z,36.22
2023-07-04T07:18:43.145Z,36.12
2023-07-04T07:21:14.652Z,35.60
2023-07-04T07:23:43.212Z,35.94
2023-07-04T07:26:13.509Z,35.64
2023-07-04T07:28:42.272Z,36.05
2023-07-04T07:31:13.792Z,35.29
2023-07-04T07:33:46.775Z,35.31
2023-07-04T07:36:17.263Z,34.80
2023-07-04T07:38:45.522Z,34.80
2023-07-04T07:41:14.129Z,34.48
2023-07-04T07:43:43.444Z,34.50
2023-07-04T07:46:12.770Z,34.09
2023-07-04T07:48:41.552Z,33.62
2023-07-04T07:51:13.648Z,33.62
2023-07-04T07:53:43.635Z,33.36
2023-07-04T07:56:15.400Z,33.23
2023-07-04T07:58:44.218Z,33.18
2023-07-04T08:01:13.663Z,33.74
2023-07-04T08:03:42.352Z,33.67
2023-07-04T08:06:21.338Z,33.36
2023-07-04T08:08:49.868Z,33.04
2023-07-04T08:11:18.771Z,33.25
2023-07-04T08:13:47.475Z,33.04
2023-07-04T08:16:19.853Z,32.70
2023-07-04T08:18:48.491Z,32.80
2023-07-04T08:21:18.823Z,32.98
2023-07-04T08:23:47.344Z,32.92
2023-07-04T08:26:20.793Z,33.57
2023-07-04T08:28:49.429Z,33.48
2023-07-04T08:31:20.249Z,33.32
2023-07-04T08:33:49.081Z,33.58
2023-07-04T08:36:20.260Z,32.70
2023-07-04T08:38:50.271Z,32.50
2023-07-04T08:41:30.298Z,32.75
2023-07-04T08:44:02.923Z,32.96
2023-07-04T08:46:37.442Z,33.09
2023-07-04T08:49:06.407Z,32.98
2023-07-04T08:51:41.214Z,32.97
2023-07-04T08:54:14.113Z,33.53
2023-07-04T08:56:42.842Z,33.31
2023-07-04T08:59:18.400Z,33.20
2023-07-04T09:02:07.732Z,32.99
2023-07-04T09:04:48.949Z,33.10
2023-07-04T09:07:26.471Z,33.28
2023-07-04T09:10:03.775Z,34.01
2023-07-04T09:12:37.066Z,34.27
2023-07-04T09:15:16.253Z,33.62
2023-07-04T09:17:51.123Z,32.93
2023-07-04T09:20:19.806Z,32.98
2023-07-04T09:22:49.358Z,32.99
2023-07-04T09:25:17.560Z,32.81
2023-07-04T09:27:45.872Z,32.42
2023-07-04T09:30:15.694Z,32.19
2023-07-04T09:32:44.657Z,32.23
2023-07-04T09:35:13.583Z,32.45
2023-07-04T09:38:04.529Z,31.95
2023-07-04T09:40:45.112Z,32.13
2023-07-04T09:43:14.199Z,31.87
2023-07-04T09:45:42.755Z,31.47
2023-07-04T09:48:12.247Z,31.27
2023-07-04T09:50:40.762Z,31.24
2023-07-04T09:53:12.244Z,30.87
2023-07-04T09:55:42.198Z,30.68
2023-07-04T09:58:20.827Z,30.61
2023-07-04T10:01:08.024Z,30.59
2023-07-04T10:03:36.198Z,31.11
2023-07-04T10:06:05.273Z,30.24
2023-07-04T10:08:50.390Z,30.84
2023-07-04T10:11:26.688Z,30.81
2023-07-04T10:14:02.014Z,31.30
2023-07-04T10:16:30.197Z,31.19
2023-07-04T10:19:05.495Z,31.12
2023-07-04T10:21:33.566Z,31.92
2023-07-04T10:24:04.507Z,32.43
2023-07-04T17:20:32.526Z,27.33
2023-07-04T17:23:00.705Z,26.53
2023-07-04T17:25:28.918Z,26.76
2023-07-04T17:27:58.794Z,27.20
2023-07-04T17:30:27.392Z,27.49
2023-07-04T17:32:55.712Z,27.25
2023-07-04T17:35:24.126Z,26.85
2023-07-04T17:37:53.682Z,26.42
2023-07-04T17:40:21.900Z,25.85
2023-07-04T17:42:50.150Z,25.90
2023-07-04T17:45:18.602Z,25.15
2023-07-04T17:47:46.831Z,25.78
2023-07-04T17:50:17.271Z,26.86
2023-07-04T17:52:45.636Z,27.44
2023-07-04T17:55:16.270Z,27.74
2023-07-04T17:57:44.922Z,27.96
2023-07-04T18:00:14.085Z,28.61
2023-07-04T18:02:42.862Z,28.90
2023-07-04T18:05:11.679Z,29.29
2023-07-04T18:07:39.892Z,29.46
2023-07-04T18:10:08.917Z,29.30
2023-07-04T18:12:39.021Z,29.44
2023-07-04T18:15:08.247Z,29.91
2023-07-04T18:17:36.478Z,29.82
2023-07-04T18:20:05.519Z,30.00
2023-07-04T18:22:33.748Z,30.49
2023-07-04T18:25:01.961Z,29.90
2023-07-04T18:27:30.812Z,30.44
2023-07-04T18:30:00.911Z,30.48
2023-07-04T18:32:29.328Z,30.59
2023-07-04T18:34:57.516Z,31.14
2023-07-04T18:37:27.287Z,31.15
2023-07-04T18:39:55.551Z,30.87
2023-07-04T18:42:23.817Z,31.67
2023-07-04T18:44:51.965Z,31.36
2023-07-04T18:47:21.532Z,31.71
2023-07-04T18:49:51.766Z,31.63
2023-07-04T18:52:19.998Z,31.59
2023-07-04T18:54:48.193Z,32.02
2023-07-04T18:57:16.416Z,32.35
2023-07-04T18:59:45.181Z,31.92
2023-07-04T19:02:13.579Z,31.79
2023-07-04T19:04:43.244Z,32.48
2023-07-04T19:07:11.459Z,32.23
2023-07-04T19:09:40.129Z,32.30
2023-07-04T19:12:10.135Z,31.89
2023-07-04T19:14:38.304Z,31.98
2023-07-04T19:17:07.389Z,32.62
2023-07-04T19:19:40.629Z,31.91
2023-07-04T19:22:13.197Z,32.18
2023-07-04T19:24:42.811Z,32.67
2023-07-04T19:27:15.675Z,33.53
2023-07-04T19:29:45.080Z,33.27
2023-07-04T19:32:14.247Z,33.27
2023-07-04T19:34:42.750Z,33.06
2023-07-04T19:37:13.998Z,33.04
2023-07-04T19:39:44.037Z,33.52
2023-07-04T19:42:13.128Z,33.48
2023-07-04T19:44:41.293Z,33.04
2023-07-04T19:47:09.654Z,33.25
2023-07-04T19:49:39.037Z,33.14
2023-07-04T19:52:08.433Z,32.70
2023-07-04T19:54:38.068Z,32.74
2023-07-04T19:57:07.151Z,32.77
2023-07-04T19:59:35.425Z,32.99
2023-07-04T20:02:04.034Z,33.98
2023-07-04T20:04:33.851Z,33.46
2023-07-04T20:07:02.053Z,33.71
2023-07-04T20:09:30.733Z,33.60
2023-07-04T20:12:00.829Z,33.70
2023-07-04T20:14:30.369Z,33.30
2023-07-04T20:16:59.691Z,33.46
2023-07-04T20:19:27.861Z,33.69
2023-07-04T20:21:56.334Z,33.55
2023-07-04T20:24:24.540Z,33.72
2023-07-04T20:26:52.715Z,34.45
2023-07-04T20:29:22.219Z,34.11
2023-07-04T20:31:50.517Z,34.23
2023-07-04T20:34:18.801Z,33.79
2023-07-04T20:36:47.009Z,33.79
2023-07-04T20:39:15.281Z,33.74
2023-07-04T20:41:43.516Z,33.98
2023-07-04T20:44:11.664Z,34.33
2023-07-04T20:46:41.282Z,34.36
2023-07-04T20:49:09.818Z,34.90
2023-07-04T20:51:38.198Z,34.30
2023-07-04T20:54:08.846Z,34.42
2023-07-04T20:56:37.009Z,34.86
2023-07-04T20:59:05.292Z,34.82
2023-07-04T21:01:33.954Z,34.77
2023-07-04T21:04:03.612Z,34.70
2023-07-04T21:06:31.819Z,35.49
2023-07-04T21:09:00.966Z,35.32
2023-07-04T21:11:29.104Z,35.22
2023-07-04T21:13:57.310Z,35.07
2023-07-04T21:16:25.640Z,35.17
2023-07-04T21:18:53.924Z,35.43
2023-07-04T21:21:23.557Z,35.41
2023-07-04T21:23:51.730Z,35.96
2023-07-04T21:26:20.712Z,35.50
2023-07-04T21:28:48.860Z,35.52
2023-07-04T21:31:17.205Z,35.87
2023-07-04T21:33:45.724Z,36.37
2023-07-04T21:36:13.964Z,35.74
2023-07-04T21:38:45.222Z,36.29
2023-07-04T21:41:13.502Z,36.49
2023-07-04T21:43:41.804Z,36.34
2023-07-04T21:46:11.332Z,36.44
2023-07-04T21:48:40.744Z,36.26
2023-07-04T21:51:09.988Z,36.48
2023-07-04T21:53:38.708Z,36.30
2023-07-04T21:56:09.018Z,36.40
2023-07-04T21:58:37.209Z,36.06
2023-07-04T22:01:06.510Z,36.63
2023-07-04T22:03:36.222Z,36.59
2023-07-04T22:06:05.863Z,36.58
2023-07-04T22:08:35.745Z,36.34
2023-07-04T22:11:04.506Z,35.91
2023-07-04T22:13:35.624Z,36.05
2023-07-04T22:16:04.082Z,35.99
2023-07-04T22:18:33.223Z,35.76
2023-07-04T22:21:05.042Z,36.35
2023-07-04T22:23:33.897Z,36.41
2023-07-04T22:26:02.122Z,36.02
2023-07-04T22:28:31.801Z,36.18
2023-07-04T22:31:03.707Z,36.33
2023-07-04T22:33:34.317Z,36.52
2023-07-04T22:36:02.747Z,36.15
2023-07-04T22:38:30.991Z,36.43
2023-07-04T22:40:59.094Z,36.28
2023-07-04T22:43:27.388Z,36.27
2023-07-04T22:45:57.496Z,36.16
2023-07-04T22:48:28.224Z,36.49
2023-07-04T22:51:01.086Z,36.61
2023-07-04T22:53:30.045Z,36.66
2023-07-04T22:55:58.672Z,36.46
2023-07-04T22:58:27.805Z,36.75
2023-07-04T23:00:55.943Z,36.52
2023-07-04T23:03:24.321Z,36.86
2023-07-04T23:05:54.343Z,36.66
2023-07-04T23:08:22.667Z,36.73
2023-07-04T23:10:50.791Z,36.85
2023-07-04T23:13:19.108Z,36.74
2023-07-04T23:15:47.248Z,36.82
2023-07-04T23:18:15.510Z,36.94
2023-07-04T23:20:43.850Z,37.08
2023-07-04T23:23:13.558Z,37.36
2023-07-04T23:25:41.788Z,37.54
2023-07-04T23:28:10.011Z,37.14
2023-07-04T23:30:38.244Z,37.46
2023-07-04T23:33:06.469Z,37.59
2023-07-04T23:35:34.652Z,37.78
2023-07-04T23:38:02.801Z,37.91
2023-07-04T23:40:32.376Z,37.93
2023-07-04T23:43:00.655Z,37.79
2023-07-04T23:45:28.866Z,37.92
2023-07-04T23:47:57.037Z,38.10
2023-07-04T23:50:26.785Z,37.87
2023-07-04T23:52:54.896Z,37.79
2023-07-04T23:55:23.775Z,37.66
2023-07-04T23:57:53.411Z,37.64
